Time;durP1;ratioP1;P1;durP2;ratioP2;P2;SDS_P1;SDS_P2;PMS_P1;PMS_P2;Temp;Humidity;BMP_temperature;BMP_pressure;BME280_temperature;BME280_humidity;BME280_pressure;Samples;Min_cycle;Max_cycle;Signal;HPM_P1;HPM_P2
2024/04/02 00:02:16;;;;;;;2.70;1.23;;;;;;;10.94;100.00;100201.97;5268905;28;20027;-73
2024/04/02 00:04:46;;;;;;;5.65;1.67;;;;;;;10.94;100.00;100203.84;5270723;28;20543;-73
2024/04/02 00:07:17;;;;;;;6.45;1.85;;;;;;;10.97;100.00;100201.63;5279289;28;20175;-72
2024/04/02 00:09:47;;;;;;;6.25;1.42;;;;;;;10.85;100.00;100209.31;5277878;28;20487;-73
2024/04/02 00:12:18;;;;;;;4.15;1.30;;;;;;;11.02;100.00;100209.94;5275024;28;20031;-73
2024/04/02 00:14:48;;;;;;;3.85;1.38;;;;;;;11.02;100.00;100209.13;5280545;28;20034;-73
2024/04/02 00:17:19;;;;;;;5.65;1.83;;;;;;;11.06;100.00;100205.88;5272089;27;20027;-73
2024/04/02 00:19:49;;;;;;;4.70;1.20;;;;;;;11.10;100.00;100206.34;5279561;28;20031;-73
2024/04/02 00:22:20;;;;;;;3.95;1.60;;;;;;;11.14;100.00;100215.69;5281969;28;20479;-73
2024/04/02 00:24:50;;;;;;;5.72;1.90;;;;;;;11.06;100.00;100216.63;5278324;28;20020;-72
2024/04/02 00:27:21;;;;;;;5.32;1.70;;;;;;;11.02;100.00;100225.22;5279114;28;20388;-73
2024/04/02 00:29:51;;;;;;;8.32;1.55;;;;;;;11.00;100.00;100229.97;5280844;28;20035;-73
2024/04/02 00:32:22;;;;;;;3.58;1.50;;;;;;;11.07;100.00;100225.50;5272965;28;20035;-72
2024/04/02 00:34:53;;;;;;;5.65;1.30;;;;;;;11.10;100.00;100220.59;5276126;28;20020;-73
2024/04/02 00:37:24;;;;;;;5.60;1.42;;;;;;;11.05;100.00;100227.56;5278298;28;20504;-73
2024/04/02 00:39:59;;;;;;;3.78;1.38;;;;;;;11.16;100.00;100235.13;5271826;28;20031;-73
2024/04/02 00:42:30;;;;;;;6.40;1.40;;;;;;;11.19;100.00;100234.75;5271278;28;20731;-72
2024/04/02 00:45:00;;;;;;;7.05;1.77;;;;;;;11.22;100.00;100233.56;5277594;28;20035;-73
2024/04/02 00:47:32;;;;;;;5.53;1.70;;;;;;;11.16;100.00;100229.78;5272806;28;20503;-73
2024/04/02 00:50:03;;;;;;;3.50;1.77;;;;;;;11.18;100.00;100241.16;5277216;28;20039;-73
2024/04/02 00:52:34;;;;;;;4.15;1.23;;;;;;;11.20;100.00;100236.44;5273684;28;20028;-72
2024/04/02 00:55:04;;;;;;;4.15;1.42;;;;;;;11.22;100.00;100249.66;5273335;28;20027;-72
2024/04/02 00:57:35;;;;;;;8.93;1.52;;;;;;;11.09;100.00;100248.47;5274449;28;20027;-73
2024/04/02 01:00:06;;;;;;;5.78;1.67;;;;;;;11.12;100.00;100239.22;5275683;28;20029;-72
2024/04/02 01:02:36;;;;;;;5.53;1.58;;;;;;;11.20;100.00;100239.13;5274627;28;20061;-73
2024/04/02 01:05:07;;;;;;;5.65;1.50;;;;;;;11.14;100.00;100240.69;5279768;28;20016;-73
2024/04/02 01:07:39;;;;;;;5.65;1.23;;;;;;;11.07;100.00;100244.28;5277428;28;20111;-73
2024/04/02 01:10:09;;;;;;;5.07;1.65;;;;;;;11.01;100.00;100248.56;5275006;28;20023;-73
2024/04/02 01:12:40;;;;;;;4.20;1.63;;;;;;;10.99;100.00;100253.25;5278504;28;20024;-73
2024/04/02 01:15:11;;;;;;;2.53;1.27;;;;;;;10.97;100.00;100251.78;5278866;28;20027;-73
2024/04/02 01:17:41;;;;;;;6.32;1.38;;;;;;;10.84;100.00;100258.63;5278038;28;20165;-74
2024/04/02 01:20:12;;;;;;;9.27;1.40;;;;;;;10.85;100.00;100256.78;5272225;28;20530;-73
2024/04/02 01:22:42;;;;;;;4.13;1.23;;;;;;;10.93;100.00;100261.22;5277151;28;20034;-73
2024/04/02 01:25:18;;;;;;;4.00;1.90;;;;;;;10.95;100.00;100260.03;5280984;28;20504;-73
2024/04/02 01:27:49;;;;;;;5.13;1.60;;;;;;;10.97;100.00;100257.97;5276545;28;20440;-73
2024/04/02 01:30:20;;;;;;;6.95;1.63;;;;;;;10.90;100.00;100254.38;5281461;28;20042;-73
2024/04/02 01:32:51;;;;;;;7.22;1.15;;;;;;;10.89;100.00;100263.41;5274110;28;20039;-73
2024/04/02 01:35:21;;;;;;;6.70;1.40;;;;;;;10.87;100.00;100262.78;5280787;28;20435;-73
2024/04/02 01:37:52;;;;;;;3.13;1.35;;;;;;;10.84;100.00;100265.81;5281799;28;20031;-73
2024/04/02 01:40:22;;;;;;;5.15;1.40;;;;;;;10.72;100.00;100268.09;5277135;28;20089;-73
2024/04/02 01:42:53;;;;;;;2.35;1.17;;;;;;;10.79;100.00;100269.06;5271796;28;20027;-73
2024/04/02 01:45:23;;;;;;;2.47;1.42;;;;;;;10.75;100.00;100272.28;5272250;28;20500;-73
2024/04/02 01:47:54;;;;;;;8.98;2.90;;;;;;;10.75;100.00;100275.81;5273286;28;20042;-73
2024/04/02 01:50:25;;;;;;;3.65;0.95;;;;;;;10.68;100.00;100282.91;5277352;28;20036;-73
2024/04/02 01:52:56;;;;;;;2.90;1.10;;;;;;;10.79;100.00;100277.13;5271083;28;20509;-73
2024/04/02 01:55:28;;;;;;;3.50;1.13;;;;;;;10.79;100.00;100282.47;5274342;28;20035;-73
2024/04/02 01:57:58;;;;;;;3.00;1.45;;;;;;;10.79;100.00;100281.63;5271065;28;20050;-73
2024/04/02 02:00:29;;;;;;;2.78;1.23;;;;;;;10.79;100.00;100276.25;5268111;28;20069;-74
2024/04/02 02:03:04;;;;;;;3.97;1.42;;;;;;;10.71;100.00;100287.09;5280180;28;20104;-73
2024/04/02 02:05:35;;;;;;;5.43;1.38;;;;;;;10.78;100.00;100283.47;5279124;28;20070;-73
2024/04/02 02:08:06;;;;;;;9.27;1.30;;;;;;;10.76;100.00;100287.38;5274296;28;20019;-73
2024/04/02 02:10:36;;;;;;;3.97;1.33;;;;;;;10.79;100.00;100293.22;5282668;28;20098;-73
2024/04/02 02:13:08;;;;;;;4.97;1.17;;;;;;;10.87;100.00;100294.97;5275661;28;20460;-73
2024/04/02 02:15:38;;;;;;;4.70;1.63;;;;;;;10.92;100.00;100289.91;5280150;28;20468;-73
2024/04/02 02:18:11;;;;;;;7.38;1.10;;;;;;;10.97;100.00;100300.09;5278541;28;20030;-73
2024/04/02 02:20:44;;;;;;;4.95;1.52;;;;;;;11.00;100.00;100297.06;5278648;28;20375;-73
2024/04/02 02:23:14;;;;;;;7.03;1.38;;;;;;;11.04;100.00;100295.66;5281677;28;20020;-74
2024/04/02 02:25:46;;;;;;;6.55;1.48;;;;;;;11.07;100.00;100296.13;5281030;28;20129;-73
2024/04/02 02:28:17;;;;;;;7.10;1.40;;;;;;;11.08;100.00;100297.78;5278229;28;20111;-72
2024/04/02 02:30:48;;;;;;;6.45;1.20;;;;;;;11.01;100.00;100302.22;5284564;28;20027;-73
2024/04/02 02:33:18;;;;;;;4.60;1.42;;;;;;;11.03;100.00;100302.03;5275011;28;20012;-73
2024/04/02 02:35:53;;;;;;;5.15;1.10;;;;;;;11.12;100.00;100301.78;5280403;28;20028;-73
2024/04/02 02:38:24;;;;;;;8.27;1.25;;;;;;;11.23;100.00;100307.72;5280837;28;20027;-73
2024/04/02 02:40:59;;;;;;;10.23;1.10;;;;;;;11.13;100.00;100307.97;5267626;28;20507;-73
2024/04/02 02:43:30;;;;;;;4.75;1.17;;;;;;;11.18;100.00;100304.75;5268941;28;20023;-73
2024/04/02 02:46:01;;;;;;;6.10;1.40;;;;;;;11.17;100.00;100303.09;5272923;28;20024;-73
2024/04/02 02:48:31;;;;;;;4.85;1.17;;;;;;;11.22;100.00;100306.06;5275741;28;20024;-73
2024/04/02 02:51:02;;;;;;;4.47;1.20;;;;;;;11.16;100.00;100310.31;5279477;28;20030;-73
2024/04/02 02:53:32;;;;;;;4.72;1.20;;;;;;;11.14;100.00;100313.19;5273558;28;20020;-73
2024/04/02 02:56:03;;;;;;;5.95;1.30;;;;;;;11.13;100.00;100318.72;5273092;28;20011;-73
2024/04/02 02:58:33;;;;;;;7.18;1.20;;;;;;;11.04;100.00;100317.97;5277777;28;20033;-73
2024/04/02 03:01:05;;;;;;;4.03;1.23;;;;;;;11.03;100.00;100323.50;5273718;28;20067;-73
2024/04/02 03:03:36;;;;;;;4.05;0.90;;;;;;;11.06;100.00;100324.00;5275603;28;20462;-73
2024/04/02 03:06:06;;;;;;;8.02;1.42;;;;;;;11.05;100.00;100324.19;5271235;28;20065;-73
2024/04/02 03:08:37;;;;;;;7.50;1.33;;;;;;;10.95;100.00;100318.25;5278951;28;20469;-74
2024/04/02 03:11:08;;;;;;;14.60;2.65;;;;;;;10.97;100.00;100319.72;5276256;28;20464;-73
2024/04/02 03:13:38;;;;;;;5.00;1.25;;;;;;;10.95;100.00;100316.38;5272479;28;20020;-73
2024/04/02 03:16:09;;;;;;;9.77;1.63;;;;;;;10.95;100.00;100327.13;5273550;28;20480;-73
2024/04/02 03:18:40;;;;;;;7.25;1.50;;;;;;;10.95;100.00;100329.81;5273770;28;20068;-74
2024/04/02 03:21:16;;;;;;;4.15;1.40;;;;;;;10.91;100.00;100333.03;5276701;28;20073;-73
2024/04/02 03:23:47;;;;;;;6.43;1.75;;;;;;;10.93;100.00;100337.19;5273035;28;20120;-73
2024/04/02 03:26:17;;;;;;;9.80;2.40;;;;;;;10.93;100.00;100334.50;5269650;28;20028;-74
2024/04/02 03:28:49;;;;;;;8.25;1.50;;;;;;;11.00;100.00;100342.69;5272615;28;20023;-73
2024/04/02 03:31:20;;;;;;;4.93;1.23;;;;;;;11.01;100.00;100341.66;5274247;28;20313;-73
2024/04/02 03:33:50;;;;;;;12.38;2.03;;;;;;;10.87;100.00;100345.97;5272876;28;20012;-74
2024/04/02 03:36:21;;;;;;;9.02;1.38;;;;;;;10.94;100.00;100346.91;5275517;28;20032;-73
2024/04/02 03:38:51;;;;;;;9.38;1.70;;;;;;;10.95;100.00;100348.59;5281060;28;20027;-73
2024/04/02 03:41:22;;;;;;;6.70;1.25;;;;;;;10.98;100.00;100350.91;5277677;28;20027;-73
2024/04/02 03:43:53;;;;;;;7.13;1.52;;;;;;;10.95;100.00;100351.28;5275550;28;20015;-73
2024/04/02 03:46:23;;;;;;;5.28;1.38;;;;;;;10.91;100.00;100360.69;5271580;28;20023;-73
2024/04/02 03:48:55;;;;;;;8.73;1.77;;;;;;;10.88;100.00;100363.72;5262059;28;20016;-73
2024/04/02 03:51:25;;;;;;;6.57;1.30;;;;;;;10.96;100.00;100370.91;5270328;28;20110;-73
2024/04/02 03:53:56;;;;;;;4.93;1.13;;;;;;;11.03;100.00;100361.09;5273741;28;20099;-73
2024/04/02 03:56:26;;;;;;;9.63;1.58;;;;;;;11.02;100.00;100364.78;5281997;28;20023;-73
2024/04/02 03:58:57;;;;;;;4.80;1.13;;;;;;;10.92;100.00;100369.59;5280581;28;20047;-73
2024/04/02 04:01:27;;;;;;;7.25;1.88;;;;;;;10.86;100.00;100365.78;5276604;28;20031;-73
2024/04/02 04:03:58;;;;;;;13.20;2.00;;;;;;;10.72;100.00;100374.59;5281478;28;20024;-73
2024/04/02 04:06:29;;;;;;;6.63;1.48;;;;;;;10.79;100.00;100370.16;5279350;28;20020;-73
2024/04/02 04:09:00;;;;;;;12.23;1.98;;;;;;;10.75;100.00;100374.25;5279216;28;20026;-74
2024/04/02 04:11:30;;;;;;;14.93;1.58;;;;;;;10.81;100.00;100368.16;5273269;28;20077;-74
2024/04/02 04:14:01;;;;;;;8.88;1.20;;;;;;;10.79;100.00;100386.25;5272944;28;20027;-73
2024/04/02 04:16:32;;;;;;;8.48;1.95;;;;;;;10.79;100.00;100376.41;5278559;28;20055;-73
2024/04/02 04:19:02;;;;;;;15.80;2.20;;;;;;;10.59;100.00;100372.47;5283506;27;20037;-73
2024/04/02 04:21:33;;;;;;;9.88;2.15;;;;;;;10.76;100.00;100383.97;5272180;28;20027;-73
2024/04/02 04:24:04;;;;;;;5.63;2.15;;;;;;;10.76;100.00;100390.16;5282419;28;20094;-75
2024/04/02 04:26:34;;;;;;;10.60;2.05;;;;;;;10.73;100.00;100392.34;5279995;28;20034;-74
2024/04/02 04:29:05;;;;;;;6.47;2.00;;;;;;;10.75;100.00;100395.72;5277479;28;20027;-74
2024/04/02 04:31:44;;;;;;;12.35;1.85;;;;;;;10.71;100.00;100397.91;5278779;28;20038;-72
2024/04/02 04:34:15;;;;;;;10.30;2.30;;;;;;;10.72;100.00;100396.88;5279015;28;20011;-72
2024/04/02 04:36:45;;;;;;;15.60;1.70;;;;;;;10.75;100.00;100398.41;5283088;28;20027;-73
2024/04/02 04:39:16;;;;;;;12.00;1.90;;;;;;;10.75;100.00;100391.19;5281907;28;20104;-73
2024/04/02 04:41:46;;;;;;;14.13;1.90;;;;;;;10.73;100.00;100400.41;5282891;28;20623;-73
2024/04/02 04:44:17;;;;;;;10.10;1.90;;;;;;;10.54;100.00;100394.50;5284981;28;20020;-73
2024/04/02 04:46:47;;;;;;;14.85;2.10;;;;;;;10.68;100.00;100398.25;5274495;28;20050;-73
2024/04/02 04:49:18;;;;;;;15.75;2.83;;;;;;;10.64;100.00;100402.28;5284424;28;20058;-73
2024/04/02 04:51:48;;;;;;;20.45;2.25;;;;;;;10.71;100.00;100410.50;5283017;28;20065;-73
2024/04/02 04:54:19;;;;;;;10.75;1.73;;;;;;;10.59;100.00;100413.59;5281563;28;20043;-73
2024/04/02 04:56:49;;;;;;;9.50;1.90;;;;;;;10.61;100.00;100414.22;5282354;28;20028;-74
2024/04/02 04:59:19;;;;;;;11.80;2.20;;;;;;;10.63;100.00;100420.25;5275249;28;20031;-73
2024/04/02 05:01:50;;;;;;;10.23;1.98;;;;;;;10.58;100.00;100419.09;5282574;28;20102;-73
2024/04/02 05:04:20;;;;;;;7.28;1.90;;;;;;;10.54;100.00;100431.19;5274902;28;20031;-72
2024/04/02 05:06:52;;;;;;;13.48;1.92;;;;;;;10.59;100.00;100426.13;5279220;28;20027;-73
2024/04/02 05:09:23;;;;;;;16.30;2.50;;;;;;;10.61;100.00;100427.63;5276107;28;20028;-73
2024/04/02 05:11:53;;;;;;;8.57;1.90;;;;;;;10.69;100.00;100428.59;5283804;28;20084;-72
2024/04/02 05:14:23;;;;;;;17.05;2.58;;;;;;;10.75;100.00;100435.97;5284160;28;20019;-72
2024/04/02 05:16:54;;;;;;;17.13;2.40;;;;;;;10.77;100.00;100434.75;5280921;28;20020;-72
2024/04/02 05:19:24;;;;;;;15.35;2.60;;;;;;;10.78;100.00;100444.47;5283614;28;20020;-73
2024/04/02 05:21:55;;;;;;;10.02;2.08;;;;;;;10.96;100.00;100449.56;5281391;28;20011;-73
2024/04/02 05:24:25;;;;;;;16.50;2.97;;;;;;;11.01;100.00;100455.22;5278854;28;20057;-73
2024/04/02 05:26:56;;;;;;;16.58;2.35;;;;;;;10.97;100.00;100451.22;5282819;28;20471;-73
2024/04/02 05:29:26;;;;;;;13.82;2.25;;;;;;;11.17;100.00;100453.44;5280334;28;20073;-73
2024/04/02 05:31:57;;;;;;;7.68;1.88;;;;;;;11.15;100.00;100454.47;5284647;28;20047;-73
2024/04/02 05:34:27;;;;;;;14.02;2.45;;;;;;;11.22;100.00;100462.63;5275961;28;20566;-73
2024/04/02 05:36:58;;;;;;;7.75;1.63;;;;;;;11.24;100.00;100465.94;5263296;28;20086;-74
2024/04/02 05:39:29;;;;;;;12.32;2.17;;;;;;;11.29;100.00;100479.66;5272414;28;20023;-73
2024/04/02 05:41:59;;;;;;;9.48;2.75;;;;;;;11.18;100.00;100471.22;5277486;28;20036;-73
2024/04/02 05:44:30;;;;;;;10.75;2.47;;;;;;;11.28;100.00;100480.69;5282306;28;20018;-73
2024/04/02 05:47:00;;;;;;;15.40;1.98;;;;;;;11.28;100.00;100479.84;5278540;28;20076;-73
2024/04/02 05:49:31;;;;;;;12.52;2.28;;;;;;;11.14;100.00;100473.41;5282409;28;20077;-73
2024/04/02 05:52:02;;;;;;;8.43;1.88;;;;;;;11.12;100.00;100484.34;5278468;28;20039;-73
2024/04/02 05:54:33;;;;;;;17.73;3.20;;;;;;;11.11;100.00;100487.22;5274093;28;20040;-73
2024/04/02 05:57:04;;;;;;;13.50;2.20;;;;;;;11.29;100.00;100485.03;5281655;28;20023;-73
2024/04/02 05:59:34;;;;;;;13.65;1.70;;;;;;;11.37;100.00;100493.03;5272531;28;20020;-73
2024/04/02 06:02:05;;;;;;;11.73;2.30;;;;;;;11.40;100.00;100502.63;5275750;28;20532;-72
2024/04/02 06:04:36;;;;;;;13.48;2.33;;;;;;;11.43;100.00;100496.03;5277297;28;20024;-72
2024/04/02 06:07:07;;;;;;;14.32;2.53;;;;;;;11.40;100.00;100492.69;5279729;28;20721;-73
2024/04/02 06:09:37;;;;;;;16.27;2.67;;;;;;;11.57;100.00;100501.44;5279172;28;20073;-73
2024/04/02 06:12:08;;;;;;;14.13;2.38;;;;;;;11.67;100.00;100499.34;5278689;28;20551;-73
2024/04/02 06:14:39;;;;;;;21.58;3.95;;;;;;;11.67;100.00;100510.09;5283779;28;20019;-73
2024/04/02 06:17:09;;;;;;;18.08;3.10;;;;;;;11.70;100.00;100505.34;5282080;28;20020;-73
2024/04/02 06:19:40;;;;;;;17.33;3.22;;;;;;;11.49;100.00;100497.97;5279213;28;20027;-73
2024/04/02 06:22:10;;;;;;;16.60;1.95;;;;;;;11.54;100.00;100498.28;5277204;28;20373;-74
2024/04/02 06:24:41;;;;;;;13.45;3.70;;;;;;;11.65;100.00;100514.00;5273934;28;20483;-73
2024/04/02 06:27:11;;;;;;;11.98;2.35;;;;;;;11.44;100.00;100503.91;5281812;28;20521;-73
2024/04/02 06:29:42;;;;;;;22.17;2.75;;;;;;;11.54;100.00;100504.47;5276859;28;20029;-73
2024/04/02 06:32:12;;;;;;;11.10;1.95;;;;;;;11.67;100.00;100506.56;5281339;27;20027;-73
2024/04/02 06:34:43;;;;;;;9.77;1.88;;;;;;;11.65;100.00;100508.63;5273251;28;20039;-73
2024/04/02 06:37:13;;;;;;;12.75;2.90;;;;;;;11.73;100.00;100513.06;5275253;28;20015;-74
2024/04/02 06:39:44;;;;;;;9.82;2.05;;;;;;;11.60;100.00;100517.22;5262703;28;20030;-73
2024/04/02 06:42:15;;;;;;;12.25;2.50;;;;;;;11.71;100.00;100515.13;5275217;28;20066;-73
2024/04/02 06:44:46;;;;;;;13.27;2.20;;;;;;;11.77;100.00;100517.06;5274194;28;20438;-73
2024/04/02 06:47:17;;;;;;;11.60;2.30;;;;;;;11.75;100.00;100513.75;5276405;28;20027;-73
2024/04/02 06:49:48;;;;;;;18.40;2.28;;;;;;;11.60;100.00;100503.78;5276610;28;20386;-73
2024/04/02 06:52:18;;;;;;;12.27;1.98;;;;;;;11.71;100.00;100505.19;5278870;28;20026;-73
2024/04/02 06:54:49;;;;;;;8.90;1.85;;;;;;;11.76;100.00;100501.97;5272745;28;20020;-73
2024/04/02 06:57:19;;;;;;;8.30;2.00;;;;;;;11.74;100.00;100506.66;5273866;28;20020;-73
2024/04/02 06:59:49;;;;;;;10.63;1.67;;;;;;;11.87;100.00;100510.44;5278898;28;20057;-74
2024/04/02 07:02:20;;;;;;;12.13;2.38;;;;;;;11.77;100.00;100507.16;5271899;28;20032;-73
2024/04/02 07:04:51;;;;;;;14.93;2.83;;;;;;;11.82;100.00;100514.69;5271001;28;20610;-73
2024/04/02 07:07:22;;;;;;;13.35;2.33;;;;;;;11.76;100.00;100512.72;5262429;28;20501;-73
2024/04/02 07:09:52;;;;;;;12.85;1.90;;;;;;;11.73;100.00;100519.28;5275002;28;20079;-74
2024/04/02 07:12:23;;;;;;;13.23;2.15;;;;;;;11.80;100.00;100520.22;5275815;28;20020;-73
2024/04/02 07:14:53;;;;;;;20.35;3.13;;;;;;;11.83;100.00;100517.19;5278875;28;20358;-73
2024/04/02 07:17:24;;;;;;;16.20;2.25;;;;;;;11.94;100.00;100513.22;5276029;28;20076;-74
2024/04/02 07:19:55;;;;;;;7.78;2.30;;;;;;;11.89;100.00;100519.16;5273472;28;20085;-73
2024/04/02 07:22:26;;;;;;;11.13;2.35;;;;;;;12.03;100.00;100512.13;5268810;28;20477;-73
2024/04/02 07:24:56;;;;;;;16.08;2.40;;;;;;;12.18;100.00;100520.22;5274686;27;20023;-73
2024/04/02 07:27:27;;;;;;;16.20;2.25;;;;;;;12.23;100.00;100517.81;5277816;28;20035;-73
2024/04/02 07:29:57;;;;;;;10.15;2.72;;;;;;;12.22;100.00;100521.50;5274915;28;20617;-72
2024/04/02 07:32:28;;;;;;;11.93;1.73;;;;;;;12.16;100.00;100525.78;5276676;28;20019;-73
2024/04/02 07:34:58;;;;;;;18.23;2.33;;;;;;;12.20;100.00;100523.56;5272396;28;20434;-72
2024/04/02 07:37:29;;;;;;;12.25;1.95;;;;;;;12.29;100.00;100518.91;5276039;28;20030;-72
2024/04/02 07:39:59;;;;;;;8.27;1.88;;;;;;;12.30;100.00;100521.44;5272284;28;20016;-73
2024/04/02 07:42:30;;;;;;;16.00;2.47;;;;;;;12.35;100.00;100521.72;5272677;28;20024;-73
2024/04/02 07:45:01;;;;;;;19.35;2.10;;;;;;;12.50;100.00;100508.25;5275702;28;20483;-74
2024/04/02 07:47:31;;;;;;;10.80;1.90;;;;;;;12.73;100.00;100524.25;5272914;28;20032;-72
2024/04/02 07:50:03;;;;;;;15.63;1.80;;;;;;;12.87;100.00;100520.72;5276668;28;20631;-73
2024/04/02 07:52:34;;;;;;;12.25;2.20;;;;;;;13.15;100.00;100528.91;5276082;27;20463;-73
2024/04/02 07:55:04;;;;;;;9.20;1.90;;;;;;;13.13;100.00;100525.56;5274361;28;20018;-73
2024/04/02 07:57:35;;;;;;;10.27;2.17;;;;;;;13.39;100.00;100525.03;5271221;28;20028;-74
2024/04/02 08:00:06;;;;;;;10.85;1.92;;;;;;;13.74;100.00;100519.75;5272258;28;20062;-73
2024/04/02 08:02:37;;;;;;;8.55;1.38;;;;;;;14.05;100.00;100522.06;5272470;28;20453;-73
2024/04/02 08:05:07;;;;;;;14.60;2.40;;;;;;;13.59;100.00;100524.38;5277463;28;20130;-73
2024/04/02 08:07:37;;;;;;;11.68;2.15;;;;;;;13.29;100.00;100540.69;5268166;28;20023;-72
2024/04/02 08:10:08;;;;;;;13.60;2.97;;;;;;;12.96;100.00;100529.53;5270890;28;20659;-73
2024/04/02 08:12:39;;;;;;;12.48;1.98;;;;;;;13.07;100.00;100542.50;5265776;28;20077;-73
2024/04/02 08:15:09;;;;;;;10.18;2.53;;;;;;;13.02;100.00;100546.78;5277548;28;20109;-72
2024/04/02 08:17:40;;;;;;;18.13;1.92;;;;;;;12.86;100.00;100542.44;5276173;28;20477;-73
2024/04/02 08:20:10;;;;;;;9.57;1.75;;;;;;;12.78;100.00;100550.63;5275448;28;20090;-73
2024/04/02 08:22:41;;;;;;;7.00;1.83;;;;;;;12.77;100.00;100549.78;5277665;28;20026;-73
2024/04/02 08:25:12;;;;;;;11.13;2.50;;;;;;;12.63;100.00;100558.72;5275638;28;20023;-73
2024/04/02 08:27:43;;;;;;;15.02;2.65;;;;;;;12.64;100.00;100547.75;5279226;28;20506;-74
2024/04/02 08:30:13;;;;;;;14.85;1.83;;;;;;;12.66;100.00;100548.41;5274321;28;20024;-73
2024/04/02 08:32:45;;;;;;;10.13;1.88;;;;;;;12.61;100.00;100547.31;5273976;28;20023;-73
2024/04/02 08:35:16;;;;;;;14.25;1.98;;;;;;;12.62;100.00;100567.81;5274214;28;20023;-73
2024/04/02 08:37:46;;;;;;;17.30;2.30;;;;;;;12.73;100.00;100559.25;5276887;28;20388;-73
2024/04/02 08:40:17;;;;;;;15.18;1.90;;;;;;;12.88;100.00;100564.63;5280156;28;20026;-73
2024/04/02 08:42:49;;;;;;;16.38;2.60;;;;;;;12.81;100.00;100561.84;5274768;28;20028;-73
2024/04/02 08:45:19;;;;;;;12.77;2.42;;;;;;;12.84;100.00;100553.38;5275442;28;20077;-73
2024/04/02 08:47:50;;;;;;;12.85;2.83;;;;;;;13.05;100.00;100568.78;5273499;28;20386;-74
2024/04/02 08:50:21;;;;;;;11.68;2.45;;;;;;;13.09;100.00;100566.53;5276750;28;20026;-73
2024/04/02 08:52:52;;;;;;;14.48;2.75;;;;;;;12.93;100.00;100567.59;5275976;28;20028;-73
2024/04/02 08:55:23;;;;;;;12.75;2.00;;;;;;;13.07;100.00;100569.41;5272957;28;20023;-73
2024/04/02 08:57:55;;;;;;;17.95;2.58;;;;;;;13.08;100.00;100571.09;5276692;28;20022;-73
2024/04/02 09:00:26;;;;;;;11.15;2.13;;;;;;;12.98;100.00;100575.94;5274308;28;20372;-73
2024/04/02 09:02:57;;;;;;;11.68;1.77;;;;;;;12.89;100.00;100580.59;5276417;28;20053;-73
2024/04/02 09:05:31;;;;;;;9.30;2.15;;;;;;;13.02;100.00;100588.00;5274759;28;20040;-73
2024/04/02 09:08:06;;;;;;;10.85;1.88;;;;;;;12.86;100.00;100575.59;5270388;28;20023;-74
2024/04/02 09:10:37;;;;;;;7.93;2.00;;;;;;;12.99;100.00;100574.06;5270592;28;20103;-73
2024/04/02 09:13:07;;;;;;;15.10;2.42;;;;;;;12.86;100.00;100585.53;5279502;28;20099;-73
2024/04/02 09:15:38;;;;;;;16.80;2.30;;;;;;;12.89;100.00;100583.28;5268857;28;20109;-74
2024/04/02 09:18:09;;;;;;;16.75;2.00;;;;;;;12.69;100.00;100592.94;5277151;28;20422;-73
2024/04/02 09:20:40;;;;;;;6.70;1.60;;;;;;;12.78;100.00;100594.53;5274906;28;20023;-73
2024/04/02 09:23:11;;;;;;;12.23;2.15;;;;;;;12.80;100.00;100607.78;5274334;28;20045;-76
2024/04/02 09:25:44;;;;;;;8.82;2.22;;;;;;;12.75;100.00;100599.44;5272434;28;20063;-74
2024/04/02 09:28:14;;;;;;;18.08;2.90;;;;;;;12.55;100.00;100602.72;5276206;28;20051;-73
2024/04/02 09:30:44;;;;;;;14.07;2.58;;;;;;;12.56;100.00;100608.94;5281824;28;20022;-74
2024/04/02 09:33:17;;;;;;;11.65;2.10;;;;;;;12.48;100.00;100615.22;5273965;28;20020;-76
2024/04/02 09:35:58;;;;;;;12.25;2.67;;;;;;;12.33;100.00;100625.13;5281072;28;20102;-74
2024/04/02 09:38:30;;;;;;;19.80;2.47;;;;;;;12.08;100.00;100625.34;5279571;28;20085;-75
2024/04/02 09:41:02;;;;;;;11.18;2.13;;;;;;;12.05;100.00;100631.09;5278255;28;20015;-74
2024/04/02 09:43:33;;;;;;;13.10;2.28;;;;;;;11.96;100.00;100625.97;5278691;28;20011;-77
2024/04/02 09:46:04;;;;;;;8.00;2.17;;;;;;;11.95;100.00;100624.28;5274621;28;20023;-74
2024/04/02 09:48:39;;;;;;;14.98;2.40;;;;;;;12.06;100.00;100630.06;5277770;28;20075;-77
2024/04/02 09:51:13;;;;;;;17.48;3.08;;;;;;;12.02;100.00;100623.38;5279686;28;20026;-74
2024/04/02 09:53:44;;;;;;;11.73;2.83;;;;;;;12.13;100.00;100614.88;5280155;28;20015;-77
2024/04/02 09:56:18;;;;;;;15.43;2.50;;;;;;;12.04;100.00;100624.03;5275873;28;20023;-75
2024/04/02 09:58:50;;;;;;;12.55;1.90;;;;;;;12.33;100.00;100619.75;5274621;28;20026;-74
2024/04/02 10:01:25;;;;;;;14.82;2.47;;;;;;;12.40;100.00;100626.06;5277319;28;20027;-74
2024/04/02 10:04:00;;;;;;;17.85;3.22;;;;;;;12.44;100.00;100622.81;5277093;28;20023;-74
2024/04/02 10:06:33;;;;;;;14.55;2.20;;;;;;;12.52;100.00;100627.28;5279200;28;20027;-74
2024/04/02 10:09:06;;;;;;;14.00;2.13;;;;;;;12.59;100.00;100628.22;5276355;28;20019;-74
2024/04/02 10:11:39;;;;;;;9.15;2.03;;;;;;;12.42;100.00;100626.72;5270888;28;20035;-74
2024/04/02 10:14:13;;;;;;;12.68;2.35;;;;;;;12.69;100.00;100628.75;5275542;28;20457;-74
2024/04/02 10:16:47;;;;;;;10.70;1.80;;;;;;;12.67;100.00;100628.13;5274333;28;20026;-74
2024/04/02 10:19:20;;;;;;;9.73;2.63;;;;;;;12.81;100.00;100636.41;5279197;28;20489;-75
2024/04/02 10:21:51;;;;;;;11.05;2.05;;;;;;;12.85;100.00;100632.28;5274659;28;20016;-74
2024/04/02 10:24:26;;;;;;;16.20;2.15;;;;;;;12.92;100.00;100638.63;5277673;28;20034;-75
2024/04/02 10:27:03;;;;;;;15.63;3.10;;;;;;;12.86;100.00;100639.38;5278544;28;20024;-74
2024/04/02 10:29:33;;;;;;;12.90;2.97;;;;;;;12.37;100.00;100632.66;5274612;27;20092;-74
2024/04/02 10:32:05;;;;;;;15.73;2.65;;;;;;;12.65;100.00;100627.50;5279716;28;20015;-74
2024/04/02 10:34:35;;;;;;;24.20;3.03;;;;;;;12.86;100.00;100634.00;5275625;28;20082;-75
2024/04/02 10:37:10;;;;;;;15.85;2.40;;;;;;;12.87;100.00;100619.50;5274595;28;20057;-76
2024/04/02 10:39:40;;;;;;;14.75;2.88;;;;;;;13.11;100.00;100623.75;5272418;27;20088;-74
2024/04/02 10:42:11;;;;;;;17.98;2.58;;;;;;;12.98;100.00;100627.09;5277631;28;20020;-75
2024/04/02 10:44:42;;;;;;;14.93;2.60;;;;;;;13.32;100.00;100618.44;5276461;28;20024;-75
2024/04/02 10:47:18;;;;;;;25.33;3.85;;;;;;;13.09;100.00;100629.31;5274983;28;20392;-76
2024/04/02 10:49:50;;;;;;;20.88;3.97;;;;;;;12.99;100.00;100636.00;5258964;28;20042;-73
2024/04/02 10:52:20;;;;;;;14.13;2.50;;;;;;;13.13;100.00;100617.13;5265788;28;20481;-73
2024/04/02 10:54:51;;;;;;;18.45;2.92;;;;;;;13.17;100.00;100637.28;5264223;28;20027;-77
2024/04/02 10:57:22;;;;;;;17.73;2.80;;;;;;;12.89;100.00;100633.59;5272114;28;20443;-73
2024/04/02 10:59:53;;;;;;;11.52;2.70;;;;;;;12.98;100.00;100637.88;5273304;28;20035;-74
2024/04/02 11:02:24;;;;;;;14.23;2.35;;;;;;;13.10;100.00;100638.22;5269137;28;20481;-73
2024/04/02 11:04:55;;;;;;;23.35;2.75;;;;;;;13.45;100.00;100639.28;5277560;28;20538;-76
2024/04/02 11:07:26;;;;;;;18.10;3.28;;;;;;;13.39;100.00;100638.19;5258140;28;20028;-77
2024/04/02 11:09:58;;;;;;;13.80;2.22;;;;;;;13.57;100.00;100628.88;5272341;28;20019;-74
2024/04/02 11:12:29;;;;;;;16.38;2.10;;;;;;;13.63;100.00;100634.31;5273166;28;20027;-73
2024/04/02 11:15:00;;;;;;;13.25;2.47;;;;;;;13.78;100.00;100636.97;5269017;28;20419;-75
2024/04/02 11:17:31;;;;;;;9.38;2.50;;;;;;;13.35;100.00;100636.91;5269301;28;20024;-75
2024/04/02 11:20:10;;;;;;;16.70;2.40;;;;;;;13.61;100.00;100640.94;5270699;28;20039;-74
2024/04/02 11:25:30;;;;;;;43.28;18.83;;;;;;;13.59;100.00;100651.91;5266363;28;20571;-74
2024/04/02 11:28:04;;;;;;;10.45;2.50;;;;;;;13.61;100.00;100644.47;5276435;28;20018;-75
2024/04/02 11:30:34;;;;;;;17.85;2.58;;;;;;;13.41;100.00;100667.66;5269514;28;20344;-74
2024/04/02 11:33:05;;;;;;;10.45;2.70;;;;;;;13.20;100.00;100660.31;5274037;28;20050;-75